createdAt,value
2023-03-26T00:04:56.414Z,11.70
2023-03-26T00:09:59.850Z,11.70
2023-03-26T00:15:05.474Z,11.60
2023-03-26T00:20:09.849Z,11.60
2023-03-26T00:25:13.750Z,11.60
2023-03-26T00:30:18.534Z,11.50
2023-03-26T00:35:22.501Z,11.50
2023-03-26T00:40:26.005Z,11.40
2023-03-26T00:45:30.505Z,11.40
2023-03-26T00:50:33.575Z,11.50
2023-03-26T00:55:36.970Z,11.40
2023-03-26T01:00:48.430Z,11.40
2023-03-26T01:05:53.722Z,11.40
2023-03-26T01:11:05.168Z,11.50
2023-03-26T01:16:20.579Z,11.50
2023-03-26T01:21:28.751Z,11.50
2023-03-26T01:27:10.795Z,11.50
2023-03-26T01:32:38.895Z,11.60
2023-03-26T01:37:58.612Z,11.60
2023-03-26T01:43:10.233Z,11.60
2023-03-26T01:48:14.447Z,11.60
2023-03-26T01:53:17.637Z,11.50
2023-03-26T01:58:29.307Z,11.40
2023-03-26T02:03:35.441Z,11.30
2023-03-26T02:08:42.498Z,11.20
2023-03-26T02:13:47.534Z,11.10
2023-03-26T02:18:55.738Z,11.00
2023-03-26T02:24:03.221Z,11.00
2023-03-26T02:29:08.012Z,11.00
2023-03-26T02:34:11.332Z,10.90
2023-03-26T02:39:14.445Z,10.90
2023-03-26T02:44:18.932Z,10.80
2023-03-26T02:49:22.028Z,10.80
2023-03-26T02:54:25.294Z,10.80
2023-03-26T02:59:29.761Z,10.70
2023-03-26T03:04:32.942Z,10.70
2023-03-26T03:09:36.007Z,10.70
2023-03-26T03:14:40.868Z,10.70
2023-03-26T03:19:43.953Z,10.70
2023-03-26T03:24:47.077Z,10.70
2023-03-26T03:29:53.718Z,10.70
2023-03-26T03:34:56.767Z,10.70
2023-03-26T03:39:59.883Z,10.70
2023-03-26T03:45:06.040Z,10.70
2023-03-26T03:50:10.666Z,10.70
2023-03-26T03:55:14.122Z,10.70
2023-03-26T04:00:19.339Z,10.60
2023-03-26T04:05:23.596Z,10.60
2023-03-26T04:10:28.070Z,10.60
2023-03-26T04:15:32.506Z,10.50
2023-03-26T04:20:35.645Z,10.40
2023-03-26T04:25:39.478Z,10.30
2023-03-26T04:30:45.013Z,10.30
2023-03-26T04:35:48.774Z,10.20
2023-03-26T04:40:52.047Z,10.10
2023-03-26T04:45:56.742Z,10.10
2023-03-26T04:51:01.247Z,10.00
2023-03-26T04:56:10.356Z,10.00
2023-03-26T05:01:16.686Z,9.90
2023-03-26T05:06:19.898Z,9.90
2023-03-26T05:11:24.293Z,9.90
2023-03-26T05:16:30.206Z,9.90
2023-03-26T05:21:33.345Z,9.80
2023-03-26T05:26:36.929Z,9.80
2023-03-26T05:31:41.398Z,9.80
2023-03-26T05:36:44.669Z,9.90
2023-03-26T05:41:47.747Z,9.90
2023-03-26T05:46:52.279Z,9.90
2023-03-26T05:51:55.657Z,9.90
2023-03-26T05:56:59.075Z,10.00
2023-03-26T06:02:03.670Z,9.90
2023-03-26T06:07:10.086Z,9.90
2023-03-26T06:12:13.225Z,10.00
2023-03-26T06:17:17.992Z,10.00
2023-03-26T06:22:21.675Z,10.10
2023-03-26T06:27:24.824Z,10.10
2023-03-26T06:32:29.317Z,10.20
2023-03-26T06:37:32.387Z,10.20
2023-03-26T06:43:08.575Z,10.20
2023-03-26T06:48:00.188Z,10.30
2023-03-26T06:53:03.290Z,10.40
2023-03-26T06:58:06.443Z,10.40
2023-03-26T07:03:11.814Z,10.50
2023-03-26T07:08:15.073Z,10.60
2023-03-26T07:13:18.178Z,10.60
2023-03-26T07:18:22.675Z,10.70
2023-03-26T07:23:26.373Z,10.70
2023-03-26T07:28:36.262Z,10.80
2023-03-26T07:33:47.995Z,10.90
2023-03-26T07:39:06.451Z,10.90
2023-03-26T07:44:40.485Z,11.00
2023-03-26T07:49:45.627Z,11.10
2023-03-26T07:54:49.308Z,11.20
2023-03-26T07:59:56.719Z,11.30
2023-03-26T08:05:18.742Z,11.40
2023-03-26T08:10:27.346Z,11.50
2023-03-26T08:15:34.512Z,11.60
2023-03-26T08:20:47.867Z,11.70
2023-03-26T08:26:02.335Z,11.80
2023-03-26T08:31:06.135Z,11.80
2023-03-26T08:36:11.338Z,11.80
2023-03-26T08:41:42.685Z,11.90
2023-03-26T08:47:15.365Z,11.90
2023-03-26T08:52:44.762Z,11.90
2023-03-26T08:58:27.578Z,11.90
2023-03-26T09:04:04.576Z,11.80
2023-03-26T09:09:49.003Z,11.80
2023-03-26T09:15:21.087Z,11.80
2023-03-26T09:21:00.121Z,11.80
2023-03-26T09:26:27.947Z,11.80
2023-03-26T09:31:46.391Z,11.70
2023-03-26T09:36:57.273Z,11.80
2023-03-26T09:42:09.911Z,11.80
2023-03-26T09:47:51.532Z,11.70
2023-03-26T09:53:15.168Z,11.60
2023-03-26T09:58:42.129Z,11.60
2023-03-26T10:04:03.107Z,11.60
2023-03-26T10:09:27.217Z,11.50
2023-03-26T10:14:39.495Z,11.50
2023-03-26T10:19:58.019Z,11.50
2023-03-26T10:25:29.269Z,11.50
2023-03-26T10:30:56.656Z,11.50
2023-03-26T10:36:26.893Z,11.40
2023-03-26T10:41:39.880Z,11.30
2023-03-26T10:47:01.179Z,11.30
2023-03-26T10:52:08.019Z,11.30
2023-03-26T10:57:19.888Z,11.20
2023-03-26T11:02:30.814Z,11.20
2023-03-26T11:07:39.427Z,11.20
2023-03-26T11:12:47.687Z,11.30
2023-03-26T11:18:02.201Z,11.30
2023-03-26T11:23:20.810Z,11.40
2023-03-26T11:28:35.111Z,11.40
2023-03-26T11:33:45.363Z,11.40
2023-03-26T15:43:20.074Z,10.60
2023-03-26T15:48:44.803Z,11.40
2023-03-26T15:53:53.992Z,12.10
2023-03-26T15:59:07.668Z,12.50
2023-03-26T16:04:37.672Z,12.80
2023-03-26T16:09:56.893Z,13.10
2023-03-26T16:15:25.306Z,13.30
2023-03-26T16:20:32.655Z,13.30
2023-03-26T16:25:54.132Z,13.40
2023-03-26T16:31:38.680Z,13.40
2023-03-26T16:36:45.231Z,13.50
2023-03-26T16:42:05.637Z,13.50
2023-03-26T16:47:20.736Z,13.50
2023-03-26T16:52:33.769Z,13.50
2023-03-26T16:57:44.667Z,13.50
2023-03-26T17:02:59.913Z,13.50
2023-03-26T17:08:12.891Z,13.50
2023-03-26T17:13:24.906Z,13.50
2023-03-26T17:18:44.353Z,13.50
2023-03-26T17:24:02.897Z,13.40
2023-03-26T17:29:18.743Z,13.40
2023-03-26T17:35:02.162Z,13.30
2023-03-26T17:40:48.746Z,13.10
2023-03-26T17:46:03.292Z,13.00
2023-03-26T17:51:23.499Z,13.00
2023-03-26T17:56:32.197Z,12.80
2023-03-26T18:01:39.395Z,12.80
2023-03-26T18:06:54.764Z,12.70
2023-03-26T18:12:23.663Z,12.70
2023-03-26T18:17:27.277Z,12.60
2023-03-26T18:22:31.925Z,12.60
2023-03-26T18:27:39.869Z,12.50
2023-03-26T18:32:52.451Z,12.50
2023-03-26T18:38:00.100Z,12.40
2023-03-26T18:43:04.738Z,12.40
2023-03-26T18:48:13.359Z,12.40
2023-03-26T18:53:20.832Z,12.40
2023-03-26T18:58:30.723Z,12.30
2023-03-26T19:03:42.766Z,12.10
2023-03-26T19:08:47.964Z,11.90
2023-03-26T19:14:06.801Z,11.70
2023-03-26T19:19:10.554Z,11.60
2023-03-26T19:24:16.378Z,11.50
2023-03-26T19:29:26.084Z,11.40
2023-03-26T19:34:34.895Z,11.30
2023-03-26T19:39:42.634Z,11.20
2023-03-26T19:44:47.325Z,11.00
2023-03-26T19:49:54.090Z,10.90
2023-03-26T19:55:01.918Z,10.80
2023-03-26T20:00:13.705Z,10.70
2023-03-26T20:05:23.031Z,10.60
2023-03-26T20:10:26.337Z,10.50
2023-03-26T20:15:34.650Z,10.50
2023-03-26T20:20:37.835Z,10.60
2023-03-26T20:25:49.729Z,10.60
2023-03-26T20:30:55.494Z,10.50
2023-03-26T20:35:59.509Z,10.60
2023-03-26T20:41:03.131Z,10.60
2023-03-26T20:46:08.013Z,10.60
2023-03-26T20:51:13.917Z,10.60
2023-03-26T20:56:18.891Z,10.60
2023-03-26T21:01:23.469Z,10.50
2023-03-26T21:06:26.796Z,10.60
2023-03-26T21:11:41.008Z,10.60
2023-03-26T21:16:46.409Z,10.50
2023-03-26T21:21:59.060Z,10.60
2023-03-26T21:27:09.732Z,10.50
2023-03-26T21:32:14.816Z,10.50
2023-03-26T21:37:19.139Z,10.60
2023-03-26T21:42:26.863Z,10.50
2023-03-26T21:47:32.289Z,10.50
2023-03-26T21:52:37.236Z,10.40
2023-03-26T21:58:00.909Z,10.40
2023-03-26T22:03:15.197Z,10.40
2023-03-26T22:08:25.462Z,10.40
2023-03-26T22:13:28.630Z,10.50
2023-03-26T22:18:33.628Z,10.40
2023-03-26T22:23:38.222Z,10.40
2023-03-26T22:28:41.574Z,10.40
2023-03-26T22:33:46.079Z,10.50
2023-03-26T22:38:49.290Z,10.50
2023-03-26T22:43:54.913Z,10.40
2023-03-26T22:49:00.506Z,10.40
2023-03-26T22:54:03.904Z,10.40
2023-03-26T22:59:07.449Z,10.40
2023-03-26T23:04:12.235Z,10.30
2023-03-26T23:09:34.150Z,10.20
2023-03-26T23:14:37.420Z,10.20
2023-03-26T23:19:43.317Z,10.10
2023-03-26T23:24:46.453Z,10.10
2023-03-26T23:29:49.558Z,10.00
2023-03-26T23:34:55.893Z,10.00
2023-03-26T23:40:00.499Z,10.00
2023-03-26T23:45:03.718Z,9.90
2023-03-26T23:50:09.787Z,10.00
2023-03-26T23:55:13.051Z,10.00
